Arch Cape, Oregon
Current Conditions -  °F | °C
As of 7:55 AM on Friday 19 Dec 2014 (Local Time) from KAST Reporting Station
Few Clouds Few Clouds  
Wind Chill: 44°   Ceiling: Unl
Heat Index: 47°   Visibility: 10mi
Dew Point: 42°   Wind: 7mph
Humidity: 83%   Direction: 180°S
Pressure: 29.89"   Gusts: NA
Location:  45.8°N, 123.96°W
Report Text: KAST 191555Z AUTO 18006KT 10SM FEW055 08/06 A2989 RMK AO2 SLP122 T00830056
Loading
Personal Weather Stations






























Interactive Weather Map New forecast layout! Learn more

10-Day Weather Forecast

Advertisements
Track Severe Weather on mobile